createdAt,value
2019-04-03T00:02:32.702Z,7.4
2019-04-03T00:07:31.651Z,7.4
2019-04-03T00:12:31.816Z,7.3
2019-04-03T00:17:31.678Z,7.2
2019-04-03T00:22:31.681Z,7.1
2019-04-03T00:27:31.678Z,7.1
2019-04-03T00:32:31.683Z,7
2019-04-03T00:37:31.700Z,6.9
2019-04-03T00:42:31.669Z,6.8
2019-04-03T00:47:31.684Z,6.8
2019-04-03T00:52:31.745Z,6.7
2019-04-03T00:57:31.645Z,6.7
2019-04-03T01:02:31.681Z,6.6
2019-04-03T01:07:31.710Z,6.6
2019-04-03T01:12:31.703Z,6.5
2019-04-03T01:17:34.110Z,6.4
2019-04-03T01:22:31.704Z,6.3
2019-04-03T01:27:31.702Z,6.3
2019-04-03T01:32:31.706Z,6.2
2019-04-03T01:37:31.696Z,6.2
2019-04-03T01:42:31.720Z,6.1
2019-04-03T01:47:31.700Z,6
2019-04-03T01:52:32.326Z,6
2019-04-03T01:57:31.726Z,5.9
2019-04-03T02:02:31.818Z,5.9
2019-04-03T02:07:31.801Z,5.8
2019-04-03T02:12:31.857Z,5.7
2019-04-03T02:17:31.727Z,5.7
2019-04-03T02:22:31.717Z,5.6
2019-04-03T02:27:33.251Z,5.6
2019-04-03T02:32:31.740Z,5.5
2019-04-03T02:37:31.805Z,5.4
2019-04-03T02:42:31.742Z,5.4
2019-04-03T02:47:33.393Z,5.3
2019-04-03T02:52:31.749Z,5.2
2019-04-03T02:57:31.989Z,5.2
2019-04-03T03:02:31.746Z,5.1
2019-04-03T03:07:35.421Z,5.1
2019-04-03T03:12:31.996Z,5
2019-04-03T03:17:31.746Z,5
2019-04-03T03:22:32.129Z,4.9
2019-04-03T03:27:31.768Z,4.8
2019-04-03T03:32:35.149Z,4.8
2019-04-03T03:37:33.966Z,4.7
2019-04-03T03:42:32.182Z,4.6
2019-04-03T03:47:31.926Z,4.6
2019-04-03T03:52:35.927Z,4.6
2019-04-03T03:57:31.776Z,4.5
2019-04-03T04:02:31.787Z,4.5
2019-04-03T04:07:35.813Z,4.4
2019-04-03T04:12:31.792Z,4.4
2019-04-03T04:17:31.741Z,4.4
2019-04-03T04:22:31.903Z,4.3
2019-04-03T04:27:33.522Z,4.3
2019-04-03T04:32:31.793Z,4.2
2019-04-03T04:37:31.784Z,4.2
2019-04-03T04:42:34.322Z,4.1
2019-04-03T04:47:31.804Z,4.1
2019-04-03T04:52:31.811Z,4.1
2019-04-03T04:57:31.796Z,4
2019-04-03T05:02:31.813Z,4.1
2019-04-03T05:07:31.829Z,4
2019-04-03T05:12:31.875Z,4.1
2019-04-03T05:17:31.805Z,4.1
2019-04-03T05:22:32.007Z,4.1
2019-04-03T05:27:34.355Z,4.2
2019-04-03T05:32:31.877Z,4.2
2019-04-03T05:37:31.837Z,4.3
2019-04-03T05:42:31.868Z,4.4
2019-04-03T05:47:31.837Z,4.5
2019-04-03T05:52:33.128Z,4.6
2019-04-03T05:57:32.474Z,4.7
2019-04-03T06:02:32.294Z,4.8
2019-04-03T06:07:32.302Z,5
2019-04-03T06:12:32.311Z,5.1
2019-04-03T06:17:32.360Z,5.2
2019-04-03T06:22:32.399Z,5.4
2019-04-03T06:27:32.313Z,5.7
2019-04-03T06:32:32.309Z,6
2019-04-03T06:37:32.310Z,6.4
2019-04-03T06:42:32.490Z,6.7
2019-04-03T06:47:32.920Z,6.9
2019-04-03T06:52:32.329Z,7.3
2019-04-03T06:57:32.316Z,7.7
2019-04-03T07:02:32.458Z,7.9
2019-04-03T07:07:35.006Z,8.3
2019-04-03T07:12:32.396Z,8.6
2019-04-03T07:17:32.920Z,9
2019-04-03T07:22:32.351Z,9.3
2019-04-03T07:27:32.296Z,9.5
2019-04-03T07:32:32.356Z,9.7
2019-04-03T07:37:32.605Z,9.9
2019-04-03T07:42:32.345Z,10
2019-04-03T07:47:34.325Z,10.3
2019-04-03T07:52:32.334Z,10.5
2019-04-03T07:57:32.362Z,10.9
2019-04-03T08:02:33.639Z,11.1
2019-04-03T08:07:32.345Z,11.4
2019-04-03T08:12:34.377Z,11.6
2019-04-03T08:17:32.457Z,11.8
2019-04-03T08:22:33.291Z,12
2019-04-03T08:27:32.358Z,12.2
2019-04-03T08:32:32.359Z,12.5
2019-04-03T08:37:32.805Z,12.8
2019-04-03T08:42:33.052Z,13
2019-04-03T08:47:32.326Z,13.3
2019-04-03T08:52:32.341Z,13.5
2019-04-03T08:57:32.380Z,13.8
2019-04-03T09:02:32.382Z,14.1
2019-04-03T09:07:32.550Z,14.3
2019-04-03T09:12:32.384Z,14.6
2019-04-03T09:17:34.004Z,14.9
2019-04-03T09:22:32.409Z,15.2
2019-04-03T09:27:32.523Z,15.4
2019-04-03T09:32:32.410Z,15.6
2019-04-03T09:37:32.397Z,15.8
2019-04-03T09:42:32.405Z,15.9
2019-04-03T09:47:34.227Z,16
2019-04-03T09:52:40.261Z,16
2019-04-03T09:57:32.500Z,16.1
2019-04-03T10:02:32.497Z,16.2
2019-04-03T10:07:35.349Z,16.4
2019-04-03T10:12:32.707Z,16.5
2019-04-03T10:17:32.419Z,16.6
2019-04-03T10:22:32.629Z,16.8
2019-04-03T10:27:32.542Z,16.9
2019-04-03T10:32:32.386Z,17
2019-04-03T10:37:32.497Z,17.1
2019-04-03T10:42:32.740Z,17.2
2019-04-03T10:47:40.751Z,17.3
2019-04-03T10:52:32.756Z,17.3
2019-04-03T10:57:33.844Z,17.4
2019-04-03T11:02:32.444Z,17.5
2019-04-03T11:07:32.427Z,17.5
2019-04-03T11:12:32.587Z,17.5
2019-04-03T11:17:32.427Z,17.6
2019-04-03T11:22:40.203Z,17.6
2019-04-03T11:30:55.416Z,17.7
2019-04-03T11:32:32.921Z,17.8
2019-04-03T11:37:33.752Z,17.8
2019-04-03T11:42:32.617Z,17.9
2019-04-03T11:47:32.542Z,17.9
2019-04-03T11:52:32.653Z,18
2019-04-03T11:57:33.023Z,18.1
2019-04-03T12:02:32.866Z,18.1
2019-04-03T12:07:32.654Z,18.2
2019-04-03T12:12:32.721Z,18.3
2019-04-03T12:17:32.480Z,18.4
2019-04-03T12:22:32.475Z,18.4
2019-04-03T12:27:35.174Z,18.5
2019-04-03T12:32:38.337Z,18.5
2019-04-03T12:37:32.484Z,18.6
2019-04-03T12:42:32.721Z,18.6
2019-04-03T12:47:32.521Z,18.7
2019-04-03T12:52:32.640Z,18.9
2019-04-03T12:57:33.888Z,19.1
2019-04-03T13:02:32.499Z,19.4
2019-04-03T13:07:33.519Z,19.6
2019-04-03T13:12:32.689Z,19.8
2019-04-03T13:17:32.732Z,19.8
2019-04-03T13:22:32.519Z,19.9
2019-04-03T13:27:32.766Z,20
2019-04-03T13:32:32.716Z,20
2019-04-03T13:37:33.005Z,20.1
2019-04-03T13:42:32.477Z,20.1
2019-04-03T13:47:32.701Z,20
2019-04-03T13:52:39.598Z,19.8
2019-04-03T13:57:32.667Z,19.8
2019-04-03T14:02:33.024Z,19.9
2019-04-03T14:07:32.522Z,20
2019-04-03T14:12:32.535Z,20
2019-04-03T14:17:35.702Z,20
2019-04-03T14:22:32.761Z,20.1
2019-04-03T14:27:32.689Z,20.1
2019-04-03T14:32:32.919Z,20.1
2019-04-03T14:37:33.003Z,20
2019-04-03T14:42:32.861Z,19.9
2019-04-03T14:47:34.129Z,19.9
2019-04-03T14:52:32.930Z,20
2019-04-03T14:57:32.788Z,19.9
2019-04-03T15:02:32.704Z,19.9
2019-04-03T15:07:32.527Z,19.8
2019-04-03T15:12:32.580Z,19.8
2019-04-03T15:17:35.902Z,19.7
2019-04-03T15:22:33.583Z,19.6
2019-04-03T15:27:32.534Z,19.6
2019-04-03T15:32:32.567Z,19.5
2019-04-03T15:37:32.731Z,19.4
2019-04-03T15:42:32.582Z,19.2
2019-04-03T15:47:36.430Z,19.1
2019-04-03T15:52:32.640Z,19
2019-04-03T15:57:32.606Z,18.9
2019-04-03T16:02:32.611Z,18.8
2019-04-03T16:07:33.533Z,18.7
2019-04-03T16:12:35.383Z,18.5
2019-04-03T16:17:33.944Z,18.4
2019-04-03T16:22:32.610Z,18.2
2019-04-03T16:27:33.084Z,18.1
2019-04-03T16:32:32.775Z,18
2019-04-03T16:37:32.738Z,17.8
2019-04-03T16:42:32.599Z,17.6
2019-04-03T16:47:32.621Z,17.5
2019-04-03T16:52:35.743Z,17.3
2019-04-03T16:57:32.775Z,17.1
2019-04-03T17:02:33.268Z,16.9
2019-04-03T17:07:32.853Z,16.7
2019-04-03T17:12:32.771Z,16.5
2019-04-03T17:17:32.817Z,16.3
2019-04-03T17:22:33.229Z,16.1
2019-04-03T17:27:32.766Z,15.9
2019-04-03T17:32:32.790Z,15.7
2019-04-03T17:37:32.850Z,15.5
2019-04-03T17:42:32.849Z,15.3
2019-04-03T17:47:32.669Z,15.1
2019-04-03T17:52:32.771Z,14.9
2019-04-03T17:57:32.803Z,14.7
2019-04-03T18:02:32.826Z,14.6
2019-04-03T18:07:32.690Z,14.4
2019-04-03T18:12:32.694Z,14.2
2019-04-03T18:17:32.724Z,14.1
2019-04-03T18:22:32.696Z,13.9
2019-04-03T18:27:33.397Z,13.7
2019-04-03T18:32:32.851Z,13.5
2019-04-03T18:37:34.387Z,13.3
2019-04-03T18:42:32.687Z,13.1
2019-04-03T18:47:40.790Z,12.9
2019-04-03T18:52:32.724Z,12.7
2019-04-03T18:57:32.714Z,12.5
2019-04-03T19:02:34.265Z,12.4
2019-04-03T19:07:32.858Z,12.2
2019-04-03T19:12:35.701Z,12
2019-04-03T19:17:32.723Z,11.8
2019-04-03T19:22:32.873Z,11.6
2019-04-03T19:27:33.101Z,11.4
2019-04-03T19:32:32.745Z,11.3
2019-04-03T19:37:34.037Z,11.2
2019-04-03T19:42:32.697Z,11
2019-04-03T19:47:32.707Z,10.8
2019-04-03T19:52:32.946Z,10.7
2019-04-03T19:57:32.718Z,10.5
2019-04-03T20:02:32.824Z,10.4
2019-04-03T20:07:32.830Z,10.3
2019-04-03T20:12:33.063Z,10.1
2019-04-03T20:17:34.622Z,10
2019-04-03T20:22:32.939Z,9.8
2019-04-03T20:27:32.750Z,9.7
2019-04-03T20:32:32.904Z,9.6
2019-04-03T20:37:32.741Z,9.5
2019-04-03T20:42:32.737Z,9.4
2019-04-03T20:47:32.899Z,9.3
2019-04-03T20:52:32.852Z,9.2
2019-04-03T20:57:33.765Z,9.1
2019-04-03T21:02:32.752Z,8.9
2019-04-03T21:07:32.739Z,8.8
2019-04-03T21:12:33.857Z,8.7
2019-04-03T21:17:32.720Z,8.6
2019-04-03T21:22:32.750Z,8.5
2019-04-03T21:27:32.734Z,8.4
2019-04-03T21:32:32.754Z,8.3
2019-04-03T21:37:32.769Z,8.2
2019-04-03T21:42:32.977Z,8.1
2019-04-03T21:47:32.870Z,8
2019-04-03T21:52:32.778Z,7.9
2019-04-03T21:57:32.974Z,7.9
2019-04-03T22:02:32.777Z,7.8
2019-04-03T22:07:32.934Z,7.7
2019-04-03T22:12:32.775Z,7.6
2019-04-03T22:17:32.774Z,7.5
2019-04-03T22:22:33.707Z,7.5
2019-04-03T22:27:32.976Z,7.4
2019-04-03T22:32:32.896Z,7.4
2019-04-03T22:37:33.222Z,7.3
2019-04-03T22:42:32.791Z,7.2
2019-04-03T22:47:32.795Z,7.2
2019-04-03T22:52:32.793Z,7.1
2019-04-03T22:57:32.966Z,7
2019-04-03T23:02:33.006Z,7
2019-04-03T23:07:32.930Z,6.9
2019-04-03T23:12:33.277Z,6.9
2019-04-03T23:17:32.803Z,6.9
2019-04-03T23:22:32.830Z,6.8
2019-04-03T23:27:33.467Z,6.8
2019-04-03T23:32:32.822Z,6.7
2019-04-03T23:37:32.897Z,6.7
2019-04-03T23:42:32.970Z,6.6
2019-04-03T23:47:32.831Z,6.5
2019-04-03T23:52:32.809Z,6.5
2019-04-03T23:57:32.820Z,6.4
